Time;durP1;ratioP1;P1;durP2;ratioP2;P2;SDS_P1;SDS_P2;PMS_P1;PMS_P2;Temp;Humidity;BMP_temperature;BMP_pressure;BME280_temperature;BME280_humidity;BME280_pressure;Samples;Min_cycle;Max_cycle;Signal;HPM_P1;HPM_P2
2023/06/11 00:00:04;;;;;;;4.82;3.50;;;;;;;-144.57;100.00;62443.72;5078134;28;20131;-64
2023/06/11 00:02:33;;;;;;;6.33;3.97;;;;;;;-144.57;100.00;62443.72;5089998;28;20064;-64
2023/06/11 00:05:07;;;;;;;6.53;4.15;;;;;;;-144.57;100.00;62443.72;5089796;28;20032;-61
2023/06/11 00:07:37;;;;;;;8.77;4.30;;;;;;;-144.57;100.00;62443.72;5088344;28;20052;-60
2023/06/11 00:10:04;;;;;;;6.28;3.58;;;;;;;-144.57;100.00;62443.72;5072570;28;20037;-61
2023/06/11 00:12:32;;;;;;;5.30;3.47;;;;;;;-144.57;100.00;62443.72;5049384;28;20521;-61
2023/06/11 00:15:02;;;;;;;6.25;3.50;;;;;;;-144.57;100.00;62443.72;5042599;28;20502;-59
2023/06/11 00:17:32;;;;;;;;;;;;;;;-144.57;100.00;62443.72;5084968;28;20485;-59
2023/06/11 00:19:58;;;;;;;4.80;3.40;;;;;;;-144.57;100.00;62443.72;5053364;28;19974;-59
2023/06/11 00:22:26;;;;;;;5.13;3.70;;;;;;;-144.57;100.00;62443.72;5048894;28;20036;-60
2023/06/11 00:24:53;;;;;;;5.82;3.97;;;;;;;-144.57;100.00;62443.72;5031412;28;20052;-59
2023/06/11 00:27:19;;;;;;;6.07;3.85;;;;;;;-144.57;100.00;62443.72;5039935;28;20048;-61
2023/06/11 00:29:45;;;;;;;6.47;4.00;;;;;;;-144.57;100.00;62443.72;5081737;28;20147;-59
2023/06/11 00:32:11;;;;;;;5.78;3.45;;;;;;;-144.57;100.00;62443.72;5081388;28;20048;-60
2023/06/11 00:34:36;;;;;;;7.80;4.03;;;;;;;-144.57;100.00;62443.72;5041946;28;20102;-61
2023/06/11 00:37:02;;;;;;;5.65;3.72;;;;;;;-144.57;100.00;62443.72;5088371;28;20051;-62
2023/06/11 00:39:29;;;;;;;7.45;3.63;;;;;;;-144.57;100.00;62443.72;5071794;28;20040;-59
2023/06/11 00:41:57;;;;;;;5.15;3.45;;;;;;;-144.57;100.00;62443.72;5052868;28;20047;-60
2023/06/11 00:44:23;;;;;;;3.90;3.25;;;;;;;-144.57;100.00;62443.72;5060509;28;20028;-60
2023/06/11 00:46:51;;;;;;;8.85;3.60;;;;;;;-144.57;100.00;62443.72;5048946;28;20047;-59
2023/06/11 00:49:17;;;;;;;3.88;3.47;;;;;;;-144.57;100.00;62443.72;5068940;28;20529;-59
2023/06/11 00:51:45;;;;;;;4.63;3.33;;;;;;;-144.57;100.00;62443.72;5083887;28;20048;-58
2023/06/11 00:54:16;;;;;;;10.80;3.65;;;;;;;-144.57;100.00;62443.72;5043460;28;20093;-59
2023/06/11 00:56:43;;;;;;;7.18;3.70;;;;;;;-144.57;100.00;62443.72;5054063;28;20052;-59
2023/06/11 00:59:10;;;;;;;6.22;3.58;;;;;;;-144.57;100.00;62443.72;5053492;28;20138;-60
2023/06/11 01:01:43;;;;;;;8.50;3.28;;;;;;;-144.57;100.00;62443.72;5087144;28;20040;-59
2023/06/11 01:04:17;;;;;;;7.35;3.30;;;;;;;-144.57;100.00;62443.72;5070266;28;20047;-60
2023/06/11 01:06:49;;;;;;;5.65;3.55;;;;;;;-144.57;100.00;62443.72;5053445;28;20045;-61
2023/06/11 01:09:21;;;;;;;5.32;3.88;;;;;;;-144.57;100.00;62443.72;5071753;28;20448;-61
2023/06/11 01:11:49;;;;;;;6.82;4.35;;;;;;;-144.57;100.00;62443.72;5056832;28;20044;-61
2023/06/11 01:14:17;;;;;;;6.50;3.28;;;;;;;-144.57;100.00;62443.72;5090366;28;20047;-61
2023/06/11 01:16:57;;;;;;;4.70;3.75;;;;;;;-144.57;100.00;62443.72;5053196;28;20493;-61
2023/06/11 01:19:37;;;;;;;4.55;3.00;;;;;;;-144.57;100.00;62443.72;5071007;28;20041;-61
2023/06/11 01:22:41;;;;;;;6.88;3.92;;;;;;;-144.57;100.00;62443.72;5090248;28;20048;-60
2023/06/11 01:25:17;;;;;;;4.22;3.33;;;;;;;-144.57;100.00;62443.72;5036521;28;20048;-61
2023/06/11 01:27:43;;;;;;;5.57;3.53;;;;;;;-144.57;100.00;62443.72;5056282;28;20086;-59
2023/06/11 01:30:17;;;;;;;9.10;3.58;;;;;;;-144.57;100.00;62443.72;5087215;28;20051;-64
2023/06/11 01:32:48;;;;;;;5.53;3.15;;;;;;;-144.57;100.00;62443.72;5064667;28;20056;-59
2023/06/11 01:35:15;;;;;;;6.25;3.75;;;;;;;-144.57;100.00;62443.72;5036678;28;20059;-61
2023/06/11 01:37:45;;;;;;;6.55;3.65;;;;;;;-144.57;100.00;62443.72;5069423;28;20056;-61
2023/06/11 01:40:13;;;;;;;7.05;3.60;;;;;;;-144.57;100.00;62443.72;5050545;28;20067;-59
2023/06/11 01:42:46;;;;;;;5.72;3.83;;;;;;;-144.57;100.00;62443.72;5076253;28;20063;-59
2023/06/11 01:45:12;;;;;;;5.97;3.45;;;;;;;-144.57;100.00;62443.72;5046088;28;20402;-60
2023/06/11 01:47:37;;;;;;;7.30;3.85;;;;;;;-144.57;100.00;62443.72;5070567;28;20049;-60
2023/06/11 01:50:05;;;;;;;5.78;3.20;;;;;;;-144.57;100.00;62443.72;5081975;28;20044;-60
2023/06/11 01:52:31;;;;;;;5.78;3.38;;;;;;;-144.57;100.00;62443.72;5071037;28;20053;-61
2023/06/11 01:54:57;;;;;;;4.95;3.55;;;;;;;-144.57;100.00;62443.72;5072706;28;20051;-61
2023/06/11 01:57:22;;;;;;;5.32;3.65;;;;;;;-144.57;100.00;62443.72;5045136;28;20410;-59
2023/06/11 01:59:48;;;;;;;5.38;3.38;;;;;;;-144.57;100.00;62443.72;5063770;28;20041;-60
2023/06/11 02:02:14;;;;;;;7.30;3.30;;;;;;;-144.57;100.00;62443.72;5061696;28;20044;-62
2023/06/11 02:04:40;;;;;;;6.45;3.30;;;;;;;-144.57;100.00;62443.72;5076872;28;20051;-61
2023/06/11 02:07:05;;;;;;;4.75;3.15;;;;;;;-144.57;100.00;62443.72;5059103;28;20064;-61
2023/06/11 02:09:32;;;;;;;4.85;3.10;;;;;;;-144.57;100.00;62443.72;5070833;28;20045;-59
2023/06/11 02:11:57;;;;;;;6.93;3.40;;;;;;;-144.57;100.00;62443.72;5069321;28;20051;-63
2023/06/11 02:14:23;;;;;;;5.30;3.17;;;;;;;-144.57;100.00;62443.72;5069496;28;20193;-61
2023/06/11 02:16:49;;;;;;;4.28;3.22;;;;;;;-144.57;100.00;62443.72;5061600;28;20052;-62
2023/06/11 02:19:16;;;;;;;7.63;3.50;;;;;;;-144.57;100.00;62443.72;5067741;28;20032;-61
2023/06/11 02:21:43;;;;;;;5.63;3.10;;;;;;;-144.57;100.00;62443.72;5070643;28;20043;-60
2023/06/11 02:24:08;;;;;;;4.32;2.90;;;;;;;-144.57;100.00;62443.72;5076254;28;20047;-60
2023/06/11 02:26:34;;;;;;;4.97;3.67;;;;;;;-144.57;100.00;62443.72;5087996;28;20052;-60
2023/06/11 02:29:00;;;;;;;5.30;3.42;;;;;;;-144.57;100.00;62443.72;5072884;28;20039;-61
2023/06/11 02:31:25;;;;;;;4.80;3.08;;;;;;;-144.57;100.00;62443.72;5069801;28;20103;-60
2023/06/11 02:33:51;;;;;;;4.90;2.88;;;;;;;-144.57;100.00;62443.72;5073695;28;20047;-61
2023/06/11 02:36:17;;;;;;;4.47;3.13;;;;;;;-144.57;100.00;62443.72;5082731;28;20036;-62
2023/06/11 02:38:42;;;;;;;5.10;3.30;;;;;;;-144.57;100.00;62443.72;5060569;28;20478;-61
2023/06/11 02:41:08;;;;;;;3.70;2.90;;;;;;;-144.57;100.00;62443.72;5075688;28;20048;-60
2023/06/11 02:43:34;;;;;;;7.97;3.13;;;;;;;-144.57;100.00;62443.72;5092891;28;20579;-61
2023/06/11 02:45:59;;;;;;;5.22;3.28;;;;;;;-144.57;100.00;62443.72;5092848;28;20093;-61
2023/06/11 02:48:25;;;;;;;5.90;2.70;;;;;;;-144.57;100.00;62443.72;5090261;28;20036;-60
2023/06/11 02:50:51;;;;;;;5.63;3.03;;;;;;;-144.57;100.00;62443.72;5092497;28;20071;-60
2023/06/11 02:53:16;;;;;;;5.78;2.90;;;;;;;-144.57;100.00;62443.72;5094058;28;20117;-63
2023/06/11 02:55:42;;;;;;;6.18;3.00;;;;;;;-144.57;100.00;62443.72;5077102;28;20048;-63
2023/06/11 02:58:08;;;;;;;3.58;2.88;;;;;;;-144.57;100.00;62443.72;5072458;28;20052;-62
2023/06/11 03:00:34;;;;;;;6.70;2.67;;;;;;;-144.57;100.00;62443.72;5073027;28;20172;-61
2023/06/11 03:02:59;;;;;;;2.97;2.67;;;;;;;-144.57;100.00;62443.72;5078099;28;20130;-60
2023/06/11 03:05:31;;;;;;;3.20;2.65;;;;;;;-144.57;100.00;62443.72;5076384;28;20553;-61
2023/06/11 03:07:57;;;;;;;3.67;2.72;;;;;;;-144.57;100.00;62443.72;5092312;28;20425;-61
2023/06/11 03:10:27;;;;;;;4.15;2.70;;;;;;;-144.57;100.00;62443.72;5092493;28;20052;-61
2023/06/11 03:12:56;;;;;;;3.67;2.80;;;;;;;-144.57;100.00;62443.72;5092430;28;20123;-61
2023/06/11 03:15:22;;;;;;;3.25;2.60;;;;;;;-144.57;100.00;62443.72;5092453;28;20051;-61
2023/06/11 03:17:48;;;;;;;8.15;2.70;;;;;;;-144.57;100.00;62443.72;5072142;28;20048;-61
2023/06/11 03:20:14;;;;;;;5.78;2.80;;;;;;;-144.57;100.00;62443.72;5071825;28;20036;-61
2023/06/11 03:22:40;;;;;;;3.00;2.35;;;;;;;-144.57;100.00;62443.72;5085427;28;20044;-61
2023/06/11 03:25:07;;;;;;;4.22;2.65;;;;;;;-144.57;100.00;62443.72;5091303;28;20040;-61
2023/06/11 03:27:34;;;;;;;3.60;2.65;;;;;;;-144.57;100.00;62443.72;5090069;28;20073;-61
2023/06/11 03:30:00;;;;;;;2.75;2.55;;;;;;;-144.57;100.00;62443.72;5072917;28;20056;-61
2023/06/11 03:32:27;;;;;;;4.10;2.53;;;;;;;-144.57;100.00;62443.72;5064180;28;20043;-62
2023/06/11 03:34:53;;;;;;;5.30;2.90;;;;;;;-144.57;100.00;62443.72;5038262;28;20036;-61
2023/06/11 03:37:21;;;;;;;6.03;2.65;;;;;;;-144.57;100.00;62443.72;5078123;28;20040;-61
2023/06/11 03:39:51;;;;;;;3.72;2.42;;;;;;;-144.57;100.00;62443.72;5091616;28;20039;-61
2023/06/11 03:42:17;;;;;;;5.60;2.67;;;;;;;-144.57;100.00;62443.72;5091841;28;20487;-61
2023/06/11 03:44:43;;;;;;;2.78;2.33;;;;;;;-144.57;100.00;62443.72;5093308;28;20032;-61
2023/06/11 03:47:11;;;;;;;3.20;2.25;;;;;;;-144.57;100.00;62443.72;5091724;28;20498;-61
2023/06/11 03:49:37;;;;;;;4.68;2.42;;;;;;;-144.57;100.00;62443.72;5091950;28;20100;-61
2023/06/11 03:52:03;;;;;;;3.33;2.53;;;;;;;-144.57;100.00;62443.72;5074812;28;20042;-64
2023/06/11 03:54:29;;;;;;;5.82;2.67;;;;;;;-144.57;100.00;62443.72;5093088;28;20044;-61
2023/06/11 03:56:55;;;;;;;3.75;2.53;;;;;;;-144.57;100.00;62443.72;5091362;28;20050;-62
2023/06/11 03:59:21;;;;;;;3.85;2.85;;;;;;;-144.57;100.00;62443.72;5092823;28;20036;-61
2023/06/11 04:01:46;;;;;;;3.63;2.50;;;;;;;-144.57;100.00;62443.72;5090717;28;20426;-62
2023/06/11 04:04:12;;;;;;;5.38;2.75;;;;;;;-144.57;100.00;62443.72;5091042;28;20450;-61
2023/06/11 04:06:39;;;;;;;2.88;2.53;;;;;;;-144.57;100.00;62443.72;5091420;28;20082;-62
2023/06/11 04:09:06;;;;;;;3.22;2.30;;;;;;;-144.57;100.00;62443.72;5091166;28;20047;-61
2023/06/11 04:11:32;;;;;;;3.60;2.60;;;;;;;-144.57;100.00;62443.72;5091128;28;20047;-61
2023/06/11 04:13:58;;;;;;;4.10;2.40;;;;;;;-144.57;100.00;62443.72;5090191;28;20173;-61
2023/06/11 04:16:24;;;;;;;4.43;2.30;;;;;;;-144.57;100.00;62443.72;5084263;28;20044;-62
2023/06/11 04:18:50;;;;;;;3.05;2.22;;;;;;;-144.57;100.00;62443.72;5061233;28;20043;-62
2023/06/11 04:21:16;;;;;;;2.65;2.20;;;;;;;-144.57;100.00;62443.72;5070978;28;20045;-62
2023/06/11 04:23:42;;;;;;;2.33;2.05;;;;;;;-144.57;100.00;62443.72;5070968;28;20184;-62
2023/06/11 04:26:09;;;;;;;4.68;2.03;;;;;;;-144.57;100.00;62443.72;5061980;28;20036;-62
2023/06/11 04:28:37;;;;;;;3.25;2.00;;;;;;;-144.57;100.00;62443.72;5071709;28;20119;-61
2023/06/11 04:31:04;;;;;;;2.92;2.22;;;;;;;-144.57;100.00;62443.72;5053884;28;20542;-60
2023/06/11 04:33:36;;;;;;;2.05;1.83;;;;;;;-144.57;100.00;62443.72;5070659;28;20055;-62
2023/06/11 04:36:07;;;;;;;2.72;2.22;;;;;;;-144.57;100.00;62443.72;5070339;28;20079;-62
2023/06/11 04:38:36;;;;;;;4.35;1.83;;;;;;;-144.57;100.00;62443.72;5071314;28;20135;-62
2023/06/11 04:41:05;;;;;;;3.00;1.80;;;;;;;-144.57;100.00;62443.72;5090600;28;20054;-61
2023/06/11 04:43:36;;;;;;;3.03;1.85;;;;;;;-144.57;100.00;62443.72;5090989;28;20392;-62
2023/06/11 04:46:04;;;;;;;1.80;1.63;;;;;;;-144.57;100.00;62443.72;5090675;28;20062;-61
2023/06/11 04:48:32;;;;;;;2.63;1.55;;;;;;;-144.57;100.00;62443.72;5089674;28;20575;-62
2023/06/11 04:51:00;;;;;;;2.92;1.73;;;;;;;-144.57;100.00;62443.72;5089291;28;20422;-61
2023/06/11 04:53:29;;;;;;;2.40;1.55;;;;;;;-144.57;100.00;62443.72;5070331;28;20060;-62
2023/06/11 04:55:57;;;;;;;1.98;1.75;;;;;;;-144.57;100.00;62443.72;5069673;28;20051;-61
2023/06/11 04:58:25;;;;;;;2.78;1.80;;;;;;;-144.57;100.00;62443.72;5074733;28;20039;-61
2023/06/11 05:00:56;;;;;;;3.13;1.48;;;;;;;-144.57;100.00;62443.72;5090198;28;20044;-61
2023/06/11 05:03:27;;;;;;;2.55;1.88;;;;;;;-144.57;100.00;62443.72;5090107;28;20075;-62
2023/06/11 05:05:54;;;;;;;2.47;1.60;;;;;;;-144.57;100.00;62443.72;5077651;28;20211;-62
2023/06/11 05:08:28;;;;;;;4.40;1.90;;;;;;;-144.57;100.00;62443.72;5070072;28;20040;-62
2023/06/11 05:10:57;;;;;;;4.13;1.83;;;;;;;-144.57;100.00;62443.72;5087200;28;20480;-63
2023/06/11 05:13:26;;;;;;;4.35;1.70;;;;;;;-144.57;100.00;62443.72;5079161;28;20075;-63
2023/06/11 05:15:58;;;;;;;4.13;1.70;;;;;;;-144.57;100.00;62443.72;5054586;28;20052;-63
2023/06/11 05:18:25;;;;;;;2.85;1.85;;;;;;;-144.57;100.00;62443.72;5082186;28;20082;-61
2023/06/11 05:20:52;;;;;;;1.95;1.70;;;;;;;-144.57;100.00;62443.72;5077943;28;20051;-63
2023/06/11 05:23:21;;;;;;;4.18;1.60;;;;;;;-144.57;100.00;62443.72;5089428;28;20040;-61
2023/06/11 05:25:47;;;;;;;3.45;1.50;;;;;;;-144.57;100.00;62443.72;5090017;28;20047;-62
2023/06/11 05:28:15;;;;;;;2.53;1.65;;;;;;;-144.57;100.00;62443.72;5087032;28;20379;-62
2023/06/11 05:30:45;;;;;;;3.45;1.70;;;;;;;-144.57;100.00;62443.72;5078461;28;20113;-62
2023/06/11 05:33:13;;;;;;;2.13;1.45;;;;;;;-144.57;100.00;62443.72;5090553;28;20032;-62
2023/06/11 05:35:40;;;;;;;2.75;1.67;;;;;;;-144.57;100.00;62443.72;5079138;28;20082;-62
2023/06/11 05:38:08;;;;;;;2.40;1.52;;;;;;;-144.57;100.00;62443.72;5089608;28;20048;-62
2023/06/11 05:40:39;;;;;;;1.83;1.60;;;;;;;-144.57;100.00;62443.72;5077228;28;20653;-62
2023/06/11 05:43:08;;;;;;;2.70;1.65;;;;;;;-144.57;100.00;62443.72;5070248;28;20070;-62
2023/06/11 05:45:35;;;;;;;2.45;1.70;;;;;;;-144.57;100.00;62443.72;5070942;28;21058;-62
2023/06/11 05:48:03;;;;;;;2.55;1.83;;;;;;;-144.57;100.00;62443.72;5071294;28;20074;-62
2023/06/11 05:50:31;;;;;;;2.17;1.45;;;;;;;-144.57;100.00;62443.72;5069722;28;20044;-62
2023/06/11 05:52:57;;;;;;;3.60;1.42;;;;;;;-144.57;100.00;62443.72;5078254;28;20457;-62
2023/06/11 05:55:23;;;;;;;2.22;1.55;;;;;;;-144.57;100.00;62443.72;5053710;28;20055;-61
2023/06/11 05:57:49;;;;;;;2.90;1.63;;;;;;;-144.57;100.00;62443.72;5069342;28;20045;-62
2023/06/11 06:00:16;;;;;;;3.88;1.58;;;;;;;-144.57;100.00;62443.72;5075525;28;20074;-62
2023/06/11 06:02:45;;;;;;;3.88;1.58;;;;;;;-144.57;100.00;62443.72;5089310;28;20051;-62
2023/06/11 06:05:20;;;;;;;1.52;1.30;;;;;;;-144.57;100.00;62443.72;5054893;28;20129;-61
2023/06/11 06:07:46;;;;;;;3.85;1.70;;;;;;;-144.57;100.00;62443.72;5087213;28;20191;-62
2023/06/11 06:10:11;;;;;;;2.53;1.40;;;;;;;-144.57;100.00;62443.72;5090486;28;20119;-62
2023/06/11 06:12:37;;;;;;;3.45;1.50;;;;;;;-144.57;100.00;62443.72;5053492;28;20052;-64
2023/06/11 06:15:04;;;;;;;2.30;1.30;;;;;;;-144.57;100.00;62443.72;5093866;28;20130;-62
2023/06/11 06:17:31;;;;;;;4.95;1.35;;;;;;;-144.57;100.00;62443.72;5093575;28;20122;-63
2023/06/11 06:19:56;;;;;;;3.08;1.50;;;;;;;-144.57;100.00;62443.72;5093253;28;20177;-63
2023/06/11 06:22:22;;;;;;;1.40;1.30;;;;;;;-144.57;100.00;62443.72;5092588;28;20085;-63
2023/06/11 06:24:48;;;;;;;3.53;1.48;;;;;;;-144.57;100.00;62443.72;5093003;28;20436;-63
2023/06/11 06:27:13;;;;;;;1.83;1.30;;;;;;;-144.57;100.00;62443.72;5092678;28;20051;-63
2023/06/11 06:29:40;;;;;;;2.30;1.35;;;;;;;-144.57;100.00;62443.72;5092483;28;20078;-64
2023/06/11 06:32:07;;;;;;;5.32;1.50;;;;;;;-144.57;100.00;62443.72;5090839;28;20040;-63
2023/06/11 06:34:34;;;;;;;2.00;1.20;;;;;;;-144.57;100.00;62443.72;5072057;28;20115;-63
2023/06/11 06:37:00;;;;;;;2.08;1.30;;;;;;;-144.57;100.00;62443.72;5084854;28;20142;-63
2023/06/11 06:39:28;;;;;;;1.70;1.60;;;;;;;-144.57;100.00;62443.72;5075805;28;20468;-63
2023/06/11 06:41:55;;;;;;;2.00;1.30;;;;;;;-144.57;100.00;62443.72;5074355;28;20055;-62
2023/06/11 06:44:32;;;;;;;7.18;1.80;;;;;;;-144.57;100.00;62443.72;5072383;28;20048;-62
2023/06/11 06:46:57;;;;;;;5.88;1.90;;;;;;;-144.57;100.00;62443.72;5067312;28;20041;-63
2023/06/11 06:49:23;;;;;;;1.80;1.33;;;;;;;-144.57;100.00;62443.72;5087864;28;20032;-64
2023/06/11 06:51:49;;;;;;;2.65;1.60;;;;;;;-144.57;100.00;62443.72;5071114;28;20053;-63
2023/06/11 06:54:16;;;;;;;3.03;1.55;;;;;;;-144.57;100.00;62443.72;5081517;28;20481;-62
2023/06/11 06:56:42;;;;;;;1.90;1.30;;;;;;;-144.57;100.00;62443.72;5073203;28;20040;-62
2023/06/11 06:59:08;;;;;;;2.80;1.40;;;;;;;-144.57;100.00;62443.72;5075977;28;20612;-65
2023/06/11 07:01:35;;;;;;;4.20;1.40;;;;;;;-144.57;100.00;62443.72;5087003;28;20510;-63
2023/06/11 07:04:02;;;;;;;2.05;1.40;;;;;;;-144.57;100.00;62443.72;5066116;28;20374;-62
2023/06/11 07:06:29;;;;;;;2.70;1.70;;;;;;;-144.57;100.00;62443.72;5070511;28;20118;-63
2023/06/11 07:08:55;;;;;;;5.45;1.50;;;;;;;-144.57;100.00;62443.72;5072991;28;20045;-63
2023/06/11 07:11:22;;;;;;;3.35;2.30;;;;;;;-144.57;100.00;62443.72;5072020;28;20197;-64
2023/06/11 07:13:48;;;;;;;2.00;1.38;;;;;;;-144.57;100.00;62443.72;5073124;28;20120;-63
2023/06/11 07:16:14;;;;;;;1.98;1.60;;;;;;;-144.57;100.00;62443.72;5076023;28;20055;-63
2023/06/11 07:18:46;;;;;;;3.15;1.55;;;;;;;-144.57;100.00;62443.72;5092280;28;20177;-63
2023/06/11 07:21:12;;;;;;;2.53;1.63;;;;;;;-144.57;100.00;62443.72;5092114;28;20520;-62
2023/06/11 07:23:38;;;;;;;2.97;1.58;;;;;;;-144.57;100.00;62443.72;5092064;28;20083;-62
2023/06/11 07:26:05;;;;;;;1.95;1.50;;;;;;;-144.57;100.00;62443.72;5089457;28;20048;-64
2023/06/11 07:28:31;;;;;;;2.47;1.60;;;;;;;-144.57;100.00;62443.72;5074909;28;20047;-64
2023/06/11 07:30:58;;;;;;;1.88;1.50;;;;;;;-144.57;100.00;62443.72;5088116;28;20052;-63
2023/06/11 07:33:24;;;;;;;2.28;1.60;;;;;;;-144.57;100.00;62443.72;5089739;28;20039;-64
2023/06/11 07:35:52;;;;;;;1.50;1.40;;;;;;;-144.57;100.00;62443.72;5092871;28;20044;-63
2023/06/11 07:38:18;;;;;;;1.55;1.45;;;;;;;-144.57;100.00;62443.72;5072995;28;20068;-64
2023/06/11 07:40:44;;;;;;;1.90;1.50;;;;;;;-144.57;100.00;62443.72;5072853;28;20068;-63
2023/06/11 07:43:10;;;;;;;4.53;1.70;;;;;;;-144.57;100.00;62443.72;5083581;28;20484;-64
2023/06/11 07:45:35;;;;;;;9.05;1.42;;;;;;;-144.57;100.00;62443.72;5071292;28;20062;-63
2023/06/11 07:48:02;;;;;;;6.38;2.50;;;;;;;-144.57;100.00;62443.72;5075910;28;20036;-63
2023/06/11 07:50:28;;;;;;;2.50;1.50;;;;;;;-144.57;100.00;62443.72;5091493;28;20043;-64
2023/06/11 07:52:54;;;;;;;2.22;1.55;;;;;;;-144.57;100.00;62443.72;5092424;28;20105;-64
2023/06/11 07:55:25;;;;;;;1.50;1.40;;;;;;;-144.57;100.00;62443.72;5092852;28;20063;-63
2023/06/11 07:57:51;;;;;;;1.70;1.40;;;;;;;-144.57;100.00;62443.72;5075828;28;20240;-62
2023/06/11 08:00:17;;;;;;;1.60;1.38;;;;;;;-144.57;100.00;62443.72;5092224;28;20484;-62
2023/06/11 08:02:43;;;;;;;3.45;1.75;;;;;;;-144.57;100.00;62443.72;5085307;28;20041;-63
2023/06/11 08:05:17;;;;;;;1.90;1.50;;;;;;;-144.57;100.00;62443.72;5072372;28;20075;-62
2023/06/11 08:07:44;;;;;;;1.52;1.23;;;;;;;-144.57;100.00;62443.72;5070972;28;20113;-62
2023/06/11 08:10:10;;;;;;;1.92;1.50;;;;;;;-144.57;100.00;62443.72;5070863;28;20049;-61
2023/06/11 08:12:36;;;;;;;3.58;1.80;;;;;;;-144.57;100.00;62443.72;5072079;28;20518;-61
2023/06/11 08:15:02;;;;;;;3.35;1.70;;;;;;;-144.57;100.00;62443.72;5080174;28;20044;-61
2023/06/11 08:17:28;;;;;;;4.95;1.80;;;;;;;-144.57;100.00;62443.72;5092271;28;20040;-61
2023/06/11 08:19:54;;;;;;;2.33;1.55;;;;;;;-144.57;100.00;62443.72;5091987;28;20401;-62
2023/06/11 08:22:20;;;;;;;3.30;1.40;;;;;;;-144.57;100.00;62443.72;5091583;28;20070;-62
2023/06/11 08:24:45;;;;;;;2.17;1.75;;;;;;;-144.57;100.00;62443.72;5075171;28;20067;-63
2023/06/11 08:27:12;;;;;;;6.97;2.53;;;;;;;-144.57;100.00;62443.72;5083961;28;20044;-63
2023/06/11 08:29:38;;;;;;;2.30;1.60;;;;;;;-144.57;100.00;62443.72;5092180;28;20051;-63
2023/06/11 08:32:04;;;;;;;1.88;1.45;;;;;;;-144.57;100.00;62443.72;5071787;28;20049;-63
2023/06/11 08:34:30;;;;;;;1.70;1.58;;;;;;;-144.57;100.00;62443.72;5070371;28;20036;-64
2023/06/11 08:36:57;;;;;;;1.83;1.50;;;;;;;-144.57;100.00;62443.72;5070975;28;20052;-62
2023/06/11 08:39:23;;;;;;;2.42;1.50;;;;;;;-144.57;100.00;62443.72;5071525;28;20121;-63
2023/06/11 08:41:48;;;;;;;3.50;1.60;;;;;;;-144.57;100.00;62443.72;5071491;28;20086;-65
2023/06/11 08:44:14;;;;;;;2.00;1.58;;;;;;;-144.57;100.00;62443.72;5091923;28;20040;-62
2023/06/11 08:46:43;;;;;;;3.28;1.40;;;;;;;-144.57;100.00;62443.72;5091942;28;20125;-63
2023/06/11 08:49:19;;;;;;;2.88;1.40;;;;;;;-144.57;100.00;62443.72;5091245;28;20499;-62
2023/06/11 08:51:44;;;;;;;5.22;1.67;;;;;;;-144.57;100.00;62443.72;5091877;28;20040;-63
2023/06/11 08:54:11;;;;;;;2.88;1.50;;;;;;;-144.57;100.00;62443.72;5072607;28;20032;-63
2023/06/11 08:56:38;;;;;;;2.90;1.50;;;;;;;-144.57;100.00;62443.72;5075072;28;20044;-64
2023/06/11 08:59:04;;;;;;;2.35;1.30;;;;;;;-144.57;100.00;62443.72;5090168;28;20036;-61
2023/06/11 09:01:31;;;;;;;1.98;1.58;;;;;;;-144.57;100.00;62443.72;5085008;28;20407;-64
2023/06/11 09:03:57;;;;;;;3.88;1.67;;;;;;;-144.57;100.00;62443.72;5080075;28;20513;-63
2023/06/11 09:06:23;;;;;;;2.70;1.50;;;;;;;-144.57;100.00;62443.72;5091922;28;20455;-64
2023/06/11 09:09:05;;;;;;;2.03;1.25;;;;;;;-144.57;100.00;62443.72;5087499;28;20378;-63
2023/06/11 09:11:32;;;;;;;4.20;1.80;;;;;;;-144.57;100.00;62443.72;5085656;28;20050;-64
2023/06/11 09:13:58;;;;;;;1.55;1.42;;;;;;;-144.57;100.00;62443.72;5089658;28;20043;-63
2023/06/11 09:16:23;;;;;;;1.98;1.48;;;;;;;-144.57;100.00;62443.72;5091245;28;20044;-63
2023/06/11 09:18:49;;;;;;;1.50;1.40;;;;;;;-144.57;100.00;62443.72;5088988;28;20043;-63
2023/06/11 09:21:15;;;;;;;1.65;1.40;;;;;;;-144.57;100.00;62443.72;5091652;28;20052;-62
2023/06/11 09:23:40;;;;;;;4.43;1.55;;;;;;;-144.57;100.00;62443.72;5076582;28;20072;-63
2023/06/11 09:26:06;;;;;;;1.92;1.65;;;;;;;-144.57;100.00;62443.72;5072778;28;20045;-61
2023/06/11 09:28:35;;;;;;;1.65;1.33;;;;;;;-144.57;100.00;62443.72;5080070;28;20090;-62
2023/06/11 09:31:03;;;;;;;1.40;1.30;;;;;;;-144.57;100.00;62443.72;5070812;28;20139;-61
2023/06/11 09:33:30;;;;;;;2.10;1.52;;;;;;;-144.57;100.00;62443.72;5076371;28;20494;-61
2023/06/11 09:35:57;;;;;;;1.70;1.48;;;;;;;-144.57;100.00;62443.72;5079510;28;20048;-62
2023/06/11 09:38:22;;;;;;;1.50;1.40;;;;;;;-144.57;100.00;62443.72;5072539;28;20040;-60
2023/06/11 09:40:50;;;;;;;1.60;1.50;;;;;;;-144.57;100.00;62443.72;5070305;28;20066;-61
2023/06/11 09:43:21;;;;;;;2.58;1.70;;;;;;;-144.57;100.00;62443.72;5061602;28;20048;-61
2023/06/11 09:45:52;;;;;;;1.88;1.50;;;;;;;-144.57;100.00;62443.72;5072360;28;20206;-61
2023/06/11 09:48:20;;;;;;;1.90;1.60;;;;;;;-144.57;100.00;62443.72;5072902;28;20418;-61
2023/06/11 09:50:48;;;;;;;1.88;1.65;;;;;;;-144.57;100.00;62443.72;5086702;28;20047;-62
2023/06/11 09:53:14;;;;;;;2.97;1.70;;;;;;;-144.57;100.00;62443.72;5076081;28;20077;-62
2023/06/11 09:55:41;;;;;;;1.70;1.45;;;;;;;-144.57;100.00;62443.72;5077795;28;20048;-62
2023/06/11 09:58:07;;;;;;;1.60;1.40;;;;;;;-144.57;100.00;62443.72;5056589;28;20048;-63
2023/06/11 10:00:33;;;;;;;2.28;1.48;;;;;;;-144.57;100.00;62443.72;5071966;28;20044;-63
2023/06/11 10:02:59;;;;;;;3.95;1.70;;;;;;;-144.57;100.00;62443.72;5075017;28;20066;-61
2023/06/11 10:05:25;;;;;;;4.30;1.70;;;;;;;-144.57;100.00;62443.72;5073952;28;20037;-61
2023/06/11 10:08:21;;;;;;;4.20;1.63;;;;;;;-144.57;100.00;62443.72;5069018;28;20506;-61
2023/06/11 10:10:50;;;;;;;1.90;1.33;;;;;;;-144.57;100.00;62443.72;5072078;28;20109;-60
2023/06/11 10:13:35;;;;;;;3.35;1.50;;;;;;;-144.57;100.00;62443.72;5059139;28;20093;-61
2023/06/11 10:16:07;;;;;;;6.50;3.80;;;;;;;-144.57;100.00;62443.72;5075305;28;20073;-63
2023/06/11 10:18:33;;;;;;;1.92;1.58;;;;;;;-144.57;100.00;62443.72;5091961;28;20048;-62
2023/06/11 10:21:03;;;;;;;2.35;1.60;;;;;;;-144.57;100.00;62443.72;5077217;28;20113;-64
2023/06/11 10:23:38;;;;;;;;;;;;;;;-144.57;100.00;62443.72;5057070;28;20033;-66
2023/06/11 10:26:04;;;;;;;4.10;1.60;;;;;;;-144.57;100.00;62443.72;5073687;28;19984;-61
2023/06/11 10:28:46;;;;;;;3.67;2.15;;;;;;;-144.57;100.00;62443.72;5074343;28;20097;-61
2023/06/11 10:31:24;;;;;;;2.80;1.90;;;;;;;-144.57;100.00;62443.72;5072788;28;20554;-61
2023/06/11 10:33:49;;;;;;;1.75;1.40;;;;;;;-144.57;100.00;62443.72;5083967;28;20039;-61
2023/06/11 10:36:24;;;;;;;4.88;1.80;;;;;;;-144.57;100.00;62443.72;5072812;28;20041;-61
2023/06/11 10:39:08;;;;;;;2.45;1.48;;;;;;;-144.57;100.00;62443.72;5072738;28;20032;-63
2023/06/11 10:41:39;;;;;;;4.55;2.55;;;;;;;-144.57;100.00;62443.72;5089978;28;20043;-62
2023/06/11 10:44:04;;;;;;;;;;;;;;;-144.57;100.00;62443.72;5093276;28;20044;-61
2023/06/11 10:46:30;;;;;;;2.03;1.80;;;;;;;-144.57;100.00;62443.72;5083754;28;19935;-62
2023/06/11 10:48:55;;;;;;;3.13;1.48;;;;;;;-144.57;100.00;62443.72;5078115;28;20394;-61
2023/06/11 10:51:21;;;;;;;4.05;2.00;;;;;;;-144.57;100.00;62443.72;5091785;28;20058;-63
2023/06/11 10:53:58;;;;;;;1.58;1.48;;;;;;;-144.57;100.00;62443.72;5091224;28;20051;-63
2023/06/11 10:56:25;;;;;;;4.60;1.50;;;;;;;-144.57;100.00;62443.72;5072288;28;20418;-62
2023/06/11 10:58:53;;;;;;;1.92;1.58;;;;;;;-144.57;100.00;62443.72;5085805;28;20047;-62
2023/06/11 11:01:22;;;;;;;5.03;1.70;;;;;;;-144.57;100.00;62443.72;5077363;28;20044;-62
2023/06/11 11:03:49;;;;;;;2.20;1.65;;;;;;;-144.57;100.00;62443.72;5073735;28;20160;-62
2023/06/11 11:06:28;;;;;;;2.95;1.60;;;;;;;-144.57;100.00;62443.72;5093689;28;20082;-62
2023/06/11 11:08:57;;;;;;;5.57;1.60;;;;;;;-144.57;100.00;62443.72;5094085;28;20131;-62
2023/06/11 11:11:24;;;;;;;2.85;1.60;;;;;;;-144.57;100.00;62443.72;5093975;28;20054;-62